createdAt,value
2023-01-23T00:01:12.838Z,67.77
2023-01-23T00:03:40.498Z,67.39
2023-01-23T00:06:09.844Z,64.71
2023-01-23T00:08:36.557Z,67.00
2023-01-23T00:11:07.435Z,68.33
2023-01-23T00:13:35.921Z,70.77
2023-01-23T00:16:11.059Z,72.25
2023-01-23T00:18:38.007Z,71.34
2023-01-23T00:21:06.594Z,69.22
2023-01-23T00:23:34.389Z,69.68
2023-01-23T00:26:07.906Z,69.72
2023-01-23T00:28:36.531Z,69.17
2023-01-23T00:31:07.447Z,70.07
2023-01-23T00:33:38.206Z,71.92
2023-01-23T00:36:06.540Z,71.96
2023-01-23T00:38:33.415Z,71.54
2023-01-23T00:41:00.141Z,72.03
2023-01-23T00:43:29.811Z,74.35
2023-01-23T00:45:58.567Z,77.60
2023-01-23T00:48:26.109Z,79.03
2023-01-23T00:50:53.312Z,81.12
2023-01-23T00:53:20.558Z,82.94
2023-01-23T00:55:47.109Z,85.79
2023-01-23T00:58:15.127Z,86.08
2023-01-23T01:00:43.577Z,84.53
2023-01-23T01:03:13.477Z,85.42
2023-01-23T01:05:41.288Z,86.12
2023-01-23T01:08:08.424Z,87.20
2023-01-23T01:10:35.718Z,86.15
2023-01-23T01:13:06.076Z,86.87
2023-01-23T01:15:37.915Z,86.93
2023-01-23T01:18:05.906Z,87.71
2023-01-23T01:20:39.515Z,89.29
2023-01-23T01:23:07.900Z,87.13
2023-01-23T01:25:35.080Z,87.94
2023-01-23T01:28:03.904Z,88.98
2023-01-23T01:30:33.398Z,88.68
2023-01-23T01:33:01.512Z,85.42
2023-01-23T01:35:29.396Z,89.03
2023-01-23T01:37:56.407Z,89.27
2023-01-23T01:40:26.495Z,89.12
2023-01-23T01:42:57.110Z,89.77
2023-01-23T01:45:42.643Z,92.25
2023-01-23T01:48:10.016Z,92.50
2023-01-23T01:50:36.854Z,89.71
2023-01-23T01:53:03.586Z,89.80
2023-01-23T01:55:33.138Z,90.92
2023-01-23T01:58:00.608Z,90.21
2023-01-23T02:00:28.709Z,90.58
2023-01-23T02:02:59.631Z,86.11
2023-01-23T02:05:28.437Z,87.08
2023-01-23T02:07:59.562Z,90.49
2023-01-23T02:10:26.396Z,92.08
2023-01-23T02:12:53.396Z,89.89
2023-01-23T02:15:21.965Z,90.40
2023-01-23T02:17:52.341Z,90.70
2023-01-23T02:20:27.877Z,91.13
2023-01-23T02:22:56.125Z,93.21
2023-01-23T02:25:37.346Z,93.09
2023-01-23T02:28:03.950Z,90.74
2023-01-23T02:30:31.583Z,92.49
2023-01-23T02:33:10.916Z,87.46
2023-01-23T02:35:37.747Z,90.90
2023-01-23T02:38:05.495Z,92.50
2023-01-23T02:40:34.034Z,89.49
2023-01-23T02:43:00.564Z,82.69
2023-01-23T02:45:27.578Z,80.38
2023-01-23T02:47:54.540Z,75.87
2023-01-23T02:50:21.697Z,78.85
2023-01-23T02:52:50.979Z,79.38
2023-01-23T02:55:18.528Z,79.84
2023-01-23T02:57:45.566Z,81.48
2023-01-23T03:00:16.400Z,82.04
2023-01-23T03:02:50.548Z,81.57
2023-01-23T03:05:17.742Z,79.89
2023-01-23T03:07:45.835Z,78.62
2023-01-23T03:10:12.911Z,79.29
2023-01-23T03:12:43.647Z,82.25
2023-01-23T03:15:10.766Z,83.77
2023-01-23T03:17:38.601Z,77.46
2023-01-23T03:20:06.324Z,77.74
2023-01-23T03:22:34.020Z,76.26
2023-01-23T03:25:01.642Z,76.50
2023-01-23T03:27:28.358Z,75.08
2023-01-23T03:30:13.618Z,74.12
2023-01-23T03:32:40.454Z,73.57
2023-01-23T03:35:07.703Z,74.67
2023-01-23T03:37:34.383Z,74.74
2023-01-23T03:40:19.786Z,78.99
2023-01-23T03:42:46.631Z,83.50
2023-01-23T03:45:14.178Z,84.63
2023-01-23T03:47:41.247Z,87.69
2023-01-23T03:50:08.497Z,85.78
2023-01-23T03:52:35.226Z,84.92
2023-01-23T03:55:02.091Z,80.51
2023-01-23T03:57:29.110Z,81.59
2023-01-23T03:59:55.627Z,77.94
2023-01-23T04:02:22.582Z,77.32
2023-01-23T04:04:49.136Z,78.61
2023-01-23T04:07:15.585Z,77.82
2023-01-23T04:09:42.313Z,75.77
2023-01-23T04:12:09.222Z,75.29
2023-01-23T04:14:38.022Z,77.48
2023-01-23T04:17:06.184Z,77.60
2023-01-23T04:19:33.258Z,75.69
2023-01-23T04:22:00.219Z,74.47
2023-01-23T04:24:27.040Z,78.00
2023-01-23T04:26:53.864Z,80.06
2023-01-23T04:29:20.523Z,79.67
2023-01-23T04:31:47.291Z,82.14
2023-01-23T04:34:14.246Z,85.57
2023-01-23T04:36:41.487Z,86.09
2023-01-23T04:39:08.222Z,87.88
2023-01-23T04:41:35.590Z,88.79
2023-01-23T04:44:20.768Z,88.28
2023-01-23T04:46:50.113Z,88.36
2023-01-23T04:49:16.942Z,85.89
2023-01-23T04:51:45.243Z,84.47
2023-01-23T04:54:12.522Z,80.25
2023-01-23T04:56:39.644Z,82.74
2023-01-23T04:59:07.591Z,86.37
2023-01-23T05:01:34.937Z,87.50
2023-01-23T05:04:03.902Z,83.69
2023-01-23T05:06:30.683Z,76.86
2023-01-23T05:08:57.000Z,76.87
2023-01-23T05:11:26.075Z,74.13
2023-01-23T05:13:52.644Z,72.70
2023-01-23T05:16:19.612Z,70.63
2023-01-23T05:18:46.180Z,71.72
2023-01-23T05:21:13.111Z,70.85
2023-01-23T05:23:39.658Z,71.81
2023-01-23T05:26:06.270Z,74.36
2023-01-23T05:28:32.783Z,76.77
2023-01-23T05:30:59.804Z,77.07
2023-01-23T05:33:26.747Z,75.71
2023-01-23T05:35:53.568Z,76.06
2023-01-23T05:38:20.308Z,75.26
2023-01-23T05:40:47.168Z,74.55
2023-01-23T05:43:15.149Z,74.56
2023-01-23T05:45:41.766Z,73.67
2023-01-23T05:48:08.987Z,75.22
2023-01-23T05:50:35.428Z,78.08
2023-01-23T05:53:02.717Z,81.66
2023-01-23T05:55:29.363Z,82.48
2023-01-23T05:57:55.993Z,84.50
2023-01-23T06:00:23.093Z,80.33
2023-01-23T06:02:49.645Z,78.56
2023-01-23T06:05:16.142Z,78.61
2023-01-23T06:07:42.581Z,79.31
2023-01-23T06:10:10.210Z,75.91
2023-01-23T06:12:37.117Z,77.21
2023-01-23T06:15:04.558Z,76.13
2023-01-23T06:17:31.386Z,75.08
2023-01-23T06:19:58.854Z,73.27
2023-01-23T06:22:26.593Z,71.80
2023-01-23T06:24:54.284Z,71.25
2023-01-23T06:27:20.923Z,69.80
2023-01-23T06:29:48.562Z,68.65
2023-01-23T06:32:16.033Z,68.46
2023-01-23T06:34:44.062Z,67.97
2023-01-23T06:37:10.422Z,68.24
2023-01-23T06:39:36.878Z,69.59
2023-01-23T06:42:03.408Z,71.29
2023-01-23T06:44:29.853Z,69.26
2023-01-23T06:46:56.392Z,68.99
2023-01-23T06:49:23.662Z,68.54
2023-01-23T06:51:50.165Z,70.07
2023-01-23T06:54:16.714Z,70.21
2023-01-23T06:56:43.239Z,69.79
2023-01-23T06:59:09.800Z,69.59
2023-01-23T07:01:36.246Z,69.27
2023-01-23T07:04:02.733Z,69.89
2023-01-23T07:06:30.831Z,69.91
2023-01-23T07:08:57.355Z,69.65
2023-01-23T07:11:24.869Z,70.85
2023-01-23T07:13:51.350Z,69.54
2023-01-23T07:16:19.258Z,68.39
2023-01-23T07:18:45.853Z,67.90
2023-01-23T07:21:12.734Z,68.28
2023-01-23T07:23:39.274Z,68.06
2023-01-23T07:26:09.436Z,68.59
2023-01-23T07:28:36.760Z,68.92
2023-01-23T07:31:04.402Z,68.88
2023-01-23T07:33:30.994Z,67.55
2023-01-23T07:35:57.693Z,67.06
2023-01-23T07:38:24.399Z,67.12
2023-01-23T07:40:50.875Z,67.06
2023-01-23T07:43:18.321Z,66.50
2023-01-23T07:45:45.953Z,66.89
2023-01-23T07:48:14.994Z,66.52
2023-01-23T07:50:41.786Z,66.27
2023-01-23T07:53:08.318Z,66.29
2023-01-23T07:55:34.909Z,66.28
2023-01-23T07:58:01.451Z,67.92
2023-01-23T08:00:29.882Z,67.97
2023-01-23T08:02:57.205Z,67.18
2023-01-23T08:05:24.254Z,67.07
2023-01-23T08:08:00.747Z,67.75
2023-01-23T08:10:34.002Z,67.70
2023-01-23T08:13:00.746Z,68.41
2023-01-23T08:15:27.311Z,69.87
2023-01-23T08:17:54.550Z,71.23
2023-01-23T08:20:23.230Z,72.12
2023-01-23T08:22:49.787Z,72.97
2023-01-23T08:25:16.325Z,76.82
2023-01-23T08:27:43.716Z,77.69
2023-01-23T08:30:10.588Z,74.29
2023-01-23T08:32:37.180Z,71.37
2023-01-23T08:35:04.860Z,70.51
2023-01-23T08:37:33.180Z,71.54
2023-01-23T08:40:00.022Z,73.57
2023-01-23T08:42:27.755Z,72.68
2023-01-23T08:44:54.145Z,69.76
2023-01-23T08:47:20.484Z,70.26
2023-01-23T08:49:47.234Z,68.49
2023-01-23T08:52:13.780Z,67.45
2023-01-23T08:54:40.791Z,70.27
2023-01-23T08:57:07.622Z,72.62
2023-01-23T08:59:34.580Z,74.59
2023-01-23T09:02:01.485Z,74.98
2023-01-23T09:04:28.438Z,71.67
2023-01-23T09:06:55.130Z,69.97
2023-01-23T09:09:21.615Z,68.86
2023-01-23T09:11:48.244Z,68.62
2023-01-23T09:14:14.763Z,67.83
2023-01-23T09:16:41.597Z,67.55
2023-01-23T09:19:10.334Z,66.80
2023-01-23T09:21:36.853Z,67.16
2023-01-23T09:24:04.223Z,66.55
2023-01-23T09:26:31.408Z,66.08
2023-01-23T09:28:58.263Z,66.57
2023-01-23T09:31:25.400Z,68.05
2023-01-23T09:33:52.289Z,72.47
2023-01-23T09:36:19.671Z,70.91
2023-01-23T09:38:49.109Z,67.90
2023-01-23T09:41:26.030Z,66.87
2023-01-23T09:44:01.969Z,67.47
2023-01-23T09:46:30.454Z,67.13
2023-01-23T09:48:58.585Z,67.40
2023-01-23T09:51:41.486Z,67.07
2023-01-23T09:54:17.549Z,65.90
2023-01-23T09:56:45.436Z,65.96
2023-01-23T09:59:28.404Z,66.67
2023-01-23T10:01:55.290Z,68.67
2023-01-23T10:04:22.206Z,66.93
2023-01-23T10:06:48.553Z,65.58
2023-01-23T10:09:32.804Z,65.35
2023-01-23T10:12:17.969Z,65.44
2023-01-23T10:15:00.197Z,67.15
2023-01-23T10:17:33.512Z,66.55
2023-01-23T10:20:00.000Z,66.77
2023-01-23T10:22:29.896Z,67.46
2023-01-23T10:24:57.280Z,65.87
2023-01-23T10:27:26.412Z,65.44
2023-01-23T10:29:57.682Z,64.94
2023-01-23T10:32:25.984Z,64.72
2023-01-23T10:35:02.176Z,64.94
2023-01-23T10:37:47.507Z,64.91
2023-01-23T10:40:14.256Z,65.40
2023-01-23T10:42:40.692Z,64.70
2023-01-23T10:45:12.310Z,63.37
2023-01-23T10:47:44.176Z,63.92
2023-01-23T10:50:11.697Z,62.87
2023-01-23T10:52:39.544Z,63.13
2023-01-23T10:55:24.527Z,63.43
2023-01-23T10:57:54.552Z,66.00
2023-01-23T11:00:20.933Z,66.07
2023-01-23T11:02:47.651Z,64.14
2023-01-23T11:05:37.613Z,64.16
2023-01-23T11:08:26.821Z,64.12
2023-01-23T11:10:53.880Z,64.53
2023-01-23T11:13:26.391Z,63.36
2023-01-23T11:15:52.941Z,62.56
2023-01-23T11:18:28.520Z,62.37
2023-01-23T11:20:55.892Z,61.66
2023-01-23T11:23:22.587Z,61.76
2023-01-23T11:25:51.057Z,61.06
2023-01-23T11:28:17.555Z,60.74
2023-01-23T11:30:51.345Z,62.13
2023-01-23T11:33:26.625Z,61.47
2023-01-23T11:36:01.380Z,61.50
2023-01-23T11:38:33.296Z,61.43
2023-01-23T11:41:01.212Z,60.52
2023-01-23T11:43:27.958Z,60.40
2023-01-23T11:45:54.693Z,60.18
2023-01-23T11:48:31.658Z,59.62
2023-01-23T11:51:07.286Z,59.78
2023-01-23T11:53:45.194Z,59.41
2023-01-23T11:56:27.127Z,61.49
2023-01-23T11:59:12.847Z,62.87
2023-01-23T12:01:39.222Z,64.43
2023-01-23T12:04:25.413Z,65.74
2023-01-23T12:06:57.982Z,68.36
2023-01-23T12:09:27.910Z,69.48
2023-01-23T12:11:58.119Z,70.80
2023-01-23T12:14:35.558Z,70.20
2023-01-23T12:17:14.107Z,67.85
2023-01-23T12:20:01.920Z,64.33
2023-01-23T12:22:28.333Z,68.28
2023-01-23T12:25:05.369Z,65.39
2023-01-23T12:27:35.056Z,63.12
2023-01-23T12:30:20.562Z,62.53
2023-01-23T12:33:05.894Z,65.08
2023-01-23T12:35:47.636Z,69.20
2023-01-23T12:38:20.273Z,68.67
2023-01-23T12:40:48.740Z,66.75
2023-01-23T12:43:23.503Z,64.96
2023-01-23T12:45:58.111Z,66.13
2023-01-23T12:48:32.785Z,66.54
2023-01-23T12:51:15.548Z,70.67
2023-01-23T12:53:44.161Z,71.91
2023-01-23T12:56:14.859Z,71.31
2023-01-23T12:58:42.909Z,69.90
2023-01-23T13:01:12.557Z,69.21
2023-01-23T13:03:58.104Z,66.58
2023-01-23T13:06:30.758Z,65.38
2023-01-23T13:09:17.716Z,65.76
2023-01-23T13:11:53.770Z,63.63
2023-01-23T13:14:43.437Z,62.95
2023-01-23T13:17:28.017Z,65.33
2023-01-23T13:20:27.183Z,64.22
2023-01-23T13:22:53.766Z,63.04
2023-01-23T13:25:20.196Z,61.65
2023-01-23T13:27:47.341Z,61.07
2023-01-23T13:30:26.286Z,60.94
2023-01-23T13:32:54.084Z,60.12
2023-01-23T13:35:39.248Z,60.43
2023-01-23T13:38:21.090Z,59.81
2023-01-23T13:41:08.462Z,60.36
2023-01-23T13:43:50.393Z,61.51
2023-01-23T13:46:30.471Z,60.41
2023-01-23T14:22:40.706Z,59.50
2023-01-23T14:25:14.712Z,58.65
2023-01-23T14:27:52.935Z,58.56
2023-01-23T14:30:24.146Z,59.28
2023-01-23T14:32:50.858Z,61.58
2023-01-23T14:35:25.757Z,60.54
2023-01-23T14:37:53.683Z,61.02
2023-01-23T14:40:27.691Z,61.02
2023-01-23T14:43:08.379Z,63.16
2023-01-23T14:45:36.261Z,63.60
2023-01-23T14:48:06.720Z,63.87
2023-01-23T14:50:34.004Z,64.27
2023-01-23T14:53:01.463Z,65.25
2023-01-23T14:55:30.022Z,64.36
2023-01-23T14:58:00.326Z,63.96
2023-01-23T15:00:28.745Z,63.89
2023-01-23T15:02:56.249Z,63.76
2023-01-23T15:05:30.148Z,61.96
2023-01-23T15:07:56.817Z,62.82
2023-01-23T15:10:25.438Z,62.22
2023-01-23T15:12:53.941Z,61.13
2023-01-23T15:15:22.916Z,60.13
2023-01-23T15:17:50.044Z,60.75
2023-01-23T15:20:30.253Z,61.00
2023-01-23T15:22:57.288Z,60.70
2023-01-23T15:25:31.101Z,60.66
2023-01-23T15:27:57.797Z,60.92
2023-01-23T15:30:36.784Z,61.29
2023-01-23T15:33:07.578Z,61.26
2023-01-23T15:35:34.718Z,60.90
2023-01-23T15:38:06.684Z,61.14
2023-01-23T15:40:38.585Z,61.71
2023-01-23T15:43:10.108Z,61.57
2023-01-23T15:45:36.751Z,60.78
2023-01-23T15:48:03.268Z,60.31
2023-01-23T15:50:30.380Z,60.90
2023-01-23T15:52:57.098Z,60.18
2023-01-23T15:55:28.066Z,61.03
2023-01-23T15:57:55.164Z,61.05
2023-01-23T16:00:25.106Z,60.99
2023-01-23T16:02:57.153Z,60.44
2023-01-23T16:05:25.856Z,61.28
2023-01-23T16:07:52.819Z,61.10
2023-01-23T16:10:21.296Z,60.94
2023-01-23T16:12:51.536Z,61.17
2023-01-23T16:15:22.567Z,61.11
2023-01-23T16:17:48.963Z,62.53
2023-01-23T16:20:18.575Z,61.14
2023-01-23T16:22:46.361Z,60.25
2023-01-23T16:25:38.155Z,60.04
2023-01-23T16:28:12.201Z,60.71
2023-01-23T16:30:38.732Z,63.17
2023-01-23T16:33:06.112Z,64.37
2023-01-23T16:35:33.173Z,63.05
2023-01-23T16:37:59.651Z,61.79
2023-01-23T16:40:27.378Z,61.01
2023-01-23T16:42:55.877Z,61.15
2023-01-23T16:45:23.019Z,62.38
2023-01-23T16:47:50.208Z,62.08
2023-01-23T16:50:22.838Z,61.60
2023-01-23T16:52:55.139Z,61.20
2023-01-23T16:55:23.709Z,61.48
2023-01-23T16:57:54.526Z,61.00
2023-01-23T17:00:33.592Z,60.85
2023-01-23T17:03:05.867Z,61.04
2023-01-23T17:06:14.147Z,61.42
2023-01-23T17:08:41.080Z,62.18
2023-01-23T17:11:29.074Z,61.89
2023-01-23T17:14:01.544Z,61.61
2023-01-23T17:16:29.016Z,61.04
2023-01-23T17:18:57.612Z,61.29
2023-01-23T17:21:33.695Z,61.85
2023-01-23T17:24:08.223Z,61.77
2023-01-23T17:26:35.364Z,61.65
2023-01-23T17:29:15.289Z,62.12
2023-01-23T17:31:46.132Z,63.25
2023-01-23T17:34:29.261Z,62.74
2023-01-23T17:36:58.586Z,63.47
2023-01-23T17:39:26.256Z,64.39
2023-01-23T17:41:54.306Z,63.85
2023-01-23T17:44:21.165Z,64.15
2023-01-23T17:46:54.740Z,64.02
2023-01-23T17:49:29.888Z,66.17
2023-01-23T17:51:58.722Z,68.17
2023-01-23T17:54:26.442Z,68.41
2023-01-23T17:56:56.635Z,68.29
2023-01-23T17:59:23.469Z,67.44
2023-01-23T18:01:52.235Z,66.56
2023-01-23T18:04:21.406Z,65.85
2023-01-23T18:06:49.859Z,64.46
2023-01-23T18:09:17.305Z,64.10
2023-01-23T18:11:49.793Z,63.70
2023-01-23T18:14:36.013Z,65.19
2023-01-23T18:17:04.408Z,64.11
2023-01-23T18:19:31.610Z,64.09
2023-01-23T18:21:58.564Z,63.63
2023-01-23T18:24:27.773Z,63.17
2023-01-23T18:27:11.285Z,64.35
2023-01-23T18:29:56.595Z,64.59
2023-01-23T18:32:24.643Z,63.78
2023-01-23T18:34:56.784Z,63.39
2023-01-23T18:37:35.184Z,62.67
2023-01-23T18:40:22.980Z,62.52
2023-01-23T18:42:59.331Z,62.50
2023-01-23T18:45:27.638Z,62.70
2023-01-23T18:47:54.648Z,62.83
2023-01-23T18:50:23.105Z,62.46
2023-01-23T18:52:49.610Z,62.20
2023-01-23T18:55:16.299Z,62.28
2023-01-23T18:57:43.189Z,62.16
2023-01-23T19:00:24.833Z,62.29
2023-01-23T19:02:53.731Z,62.96
2023-01-23T19:05:27.302Z,63.14
2023-01-23T19:07:54.147Z,62.77
2023-01-23T19:10:29.183Z,63.46
2023-01-23T19:13:08.207Z,63.34
2023-01-23T19:15:54.102Z,63.94
2023-01-23T19:18:40.377Z,64.17
2023-01-23T19:21:19.965Z,63.54
2023-01-23T19:23:55.789Z,63.81
2023-01-23T19:26:25.221Z,64.01
2023-01-23T19:28:57.458Z,63.91
2023-01-23T19:31:27.947Z,63.32
2023-01-23T19:33:58.702Z,63.09
2023-01-23T19:36:25.731Z,62.75
2023-01-23T19:39:00.938Z,64.01
2023-01-23T19:41:48.295Z,63.10
2023-01-23T19:44:19.026Z,62.62
2023-01-23T19:46:46.476Z,63.29
2023-01-23T19:49:13.942Z,63.10
2023-01-23T19:51:42.923Z,62.83
2023-01-23T19:54:13.370Z,62.57
2023-01-23T19:56:40.604Z,62.13
2023-01-23T19:59:07.565Z,61.59
2023-01-23T20:01:36.718Z,62.17
2023-01-23T20:04:03.804Z,62.15
2023-01-23T20:06:30.785Z,62.32
2023-01-23T20:08:58.293Z,61.94
2023-01-23T20:11:24.952Z,62.16
2023-01-23T20:13:51.531Z,62.34
2023-01-23T20:16:24.737Z,62.01
2023-01-23T20:18:52.710Z,62.78
2023-01-23T20:21:20.672Z,63.19
2023-01-23T20:23:47.805Z,63.37
2023-01-23T20:26:14.702Z,63.65
2023-01-23T20:28:43.638Z,62.87
2023-01-23T20:31:11.568Z,62.32
2023-01-23T20:33:38.246Z,62.05
2023-01-23T20:36:06.715Z,61.70
2023-01-23T20:38:33.931Z,61.41
2023-01-23T20:41:07.676Z,61.89
2023-01-23T20:43:34.785Z,62.04
2023-01-23T20:46:01.679Z,61.42
2023-01-23T20:48:28.280Z,61.66
2023-01-23T20:50:56.266Z,61.77
2023-01-23T20:53:33.983Z,61.62
2023-01-23T20:56:03.781Z,61.21
2023-01-23T20:58:50.144Z,61.36
2023-01-23T21:01:17.709Z,61.45
2023-01-23T21:03:47.285Z,61.55
2023-01-23T21:06:15.308Z,61.90
2023-01-23T21:08:42.491Z,60.98
2023-01-23T21:11:14.713Z,61.30
2023-01-23T21:13:41.851Z,60.99
2023-01-23T21:16:11.473Z,63.10
2023-01-23T21:18:41.449Z,64.37
2023-01-23T21:21:09.713Z,63.55
2023-01-23T21:23:36.825Z,61.93
2023-01-23T21:26:04.467Z,62.80
2023-01-23T21:28:36.220Z,61.81
2023-01-23T21:31:13.726Z,61.36
2023-01-23T21:33:40.794Z,62.12
2023-01-23T21:36:07.942Z,61.67
2023-01-23T21:38:34.533Z,61.92
2023-01-23T21:41:01.386Z,61.71
2023-01-23T21:43:28.074Z,61.71
2023-01-23T21:45:57.392Z,61.51
2023-01-23T21:48:24.869Z,61.72
2023-01-23T21:50:51.402Z,62.30
2023-01-23T21:53:17.899Z,62.61
2023-01-23T21:55:46.871Z,63.13
2023-01-23T21:58:13.357Z,62.28
2023-01-23T22:00:58.473Z,62.23
2023-01-23T22:03:24.859Z,61.21
2023-01-23T22:05:51.261Z,60.90
2023-01-23T22:08:18.283Z,61.29
2023-01-23T22:10:47.838Z,61.71
2023-01-23T22:13:14.914Z,61.66
2023-01-23T22:15:41.332Z,61.50
2023-01-23T22:18:08.115Z,61.96
2023-01-23T22:20:37.365Z,61.25
2023-01-23T22:23:04.167Z,61.18
2023-01-23T22:25:31.150Z,61.04
2023-01-23T22:27:57.997Z,61.88
2023-01-23T22:30:24.426Z,62.41
2023-01-23T22:32:51.527Z,63.00
2023-01-23T22:35:18.286Z,62.14
2023-01-23T22:37:45.781Z,61.83
2023-01-23T22:40:13.915Z,62.06
2023-01-23T22:42:40.616Z,61.69
2023-01-23T22:45:09.761Z,62.61
2023-01-23T22:47:36.732Z,62.07
2023-01-23T22:50:03.369Z,62.15
2023-01-23T22:52:30.766Z,61.95
2023-01-23T22:54:57.405Z,62.14
2023-01-23T22:57:24.197Z,62.30
2023-01-23T22:59:54.256Z,62.13
2023-01-23T23:02:20.766Z,62.15
2023-01-23T23:04:49.935Z,61.46
2023-01-23T23:07:19.369Z,61.49
2023-01-23T23:09:53.245Z,60.93
2023-01-23T23:12:19.770Z,61.13
2023-01-23T23:14:46.316Z,61.55
2023-01-23T23:17:12.999Z,61.11
2023-01-23T23:19:39.891Z,60.61
2023-01-23T23:22:06.763Z,61.07
2023-01-23T23:24:33.402Z,61.05
2023-01-23T23:27:00.054Z,62.20
2023-01-23T23:29:29.069Z,62.59
2023-01-23T23:31:57.435Z,62.07
2023-01-23T23:34:24.045Z,61.40
2023-01-23T23:36:50.950Z,60.96
2023-01-23T23:39:17.491Z,60.68
2023-01-23T23:41:44.161Z,61.26
2023-01-23T23:44:11.775Z,60.88
2023-01-23T23:46:38.420Z,60.86
2023-01-23T23:49:04.966Z,61.03
2023-01-23T23:51:31.997Z,62.47
2023-01-23T23:53:58.533Z,61.84
2023-01-23T23:56:26.641Z,60.93
2023-01-23T23:58:54.056Z,60.41
